Time;durP1;ratioP1;P1;durP2;ratioP2;P2;SDS_P1;SDS_P2;PMS_P1;PMS_P2;Temp;Humidity;BMP_temperature;BMP_pressure;BME280_temperature;BME280_humidity;BME280_pressure;Samples;Min_cycle;Max_cycle;Signal;HPM_P1;HPM_P2
2022/09/16 00:00:03;;;;;;;7.50;0.88;;;;;;;9.06;100.00;100576.28;2087856;28;30469;-72
2022/09/16 00:01:19;;;;;;;6.72;0.75;;;;;;;9.03;100.00;100573.69;2090596;28;20038;-72
2022/09/16 00:02:21;;;;;;;9.77;1.10;;;;;;;9.09;100.00;100576.22;2088094;28;30222;-72
2022/09/16 00:03:23;;;;;;;8.90;0.82;;;;;;;9.13;100.00;100577.91;2086431;28;38495;-73
2022/09/16 00:04:25;;;;;;;6.97;0.73;;;;;;;9.14;100.00;100574.31;2087093;28;31683;-73
2022/09/16 00:05:27;;;;;;;6.00;0.80;;;;;;;9.09;100.00;100574.41;2087622;28;31468;-73
2022/09/16 00:06:30;;;;;;;4.82;0.85;;;;;;;9.15;100.00;100576.97;2087542;28;32069;-73
2022/09/16 00:07:31;;;;;;;5.82;0.95;;;;;;;9.20;100.00;100581.31;2088285;28;20972;-73
2022/09/16 00:08:33;;;;;;;5.85;0.80;;;;;;;9.20;100.00;100578.66;2083955;28;34382;-73
2022/09/16 00:09:37;;;;;;;9.27;1.17;;;;;;;9.22;100.00;100585.69;2079511;28;32151;-73
2022/09/16 00:10:39;;;;;;;3.70;0.55;;;;;;;9.27;100.00;100578.47;2079384;28;33009;-73
2022/09/16 00:11:42;;;;;;;6.22;0.77;;;;;;;9.27;100.00;100577.59;2079025;28;20042;-73
2022/09/16 00:12:47;;;;;;;5.15;0.65;;;;;;;9.27;100.00;100572.25;2078923;28;37214;-72
2022/09/16 00:13:49;;;;;;;5.80;0.65;;;;;;;9.30;100.00;100577.53;2079541;28;33022;-73
2022/09/16 00:14:53;;;;;;;3.90;0.68;;;;;;;9.32;100.00;100583.72;2079752;28;29498;-73
2022/09/16 00:15:55;;;;;;;7.47;0.90;;;;;;;9.32;100.00;100573.03;2078595;28;37663;-73
2022/09/16 00:16:56;;;;;;;5.80;1.15;;;;;;;9.33;100.00;100572.09;2078873;28;35027;-73
2022/09/16 00:17:58;;;;;;;7.18;0.68;;;;;;;9.35;100.00;100576.50;2078607;28;37505;-73
2022/09/16 00:19:02;;;;;;;7.45;0.68;;;;;;;9.36;100.00;100570.22;2079539;28;35516;-72
2022/09/16 00:20:07;;;;;;;3.85;0.57;;;;;;;9.34;100.00;100576.53;2079193;28;36443;-72
2022/09/16 00:21:09;;;;;;;8.63;0.63;;;;;;;9.33;100.00;100575.66;2078254;28;35976;-73
2022/09/16 00:22:11;;;;;;;7.32;2.35;;;;;;;9.37;100.00;100579.13;2078512;28;31551;-72
2022/09/16 00:23:14;;;;;;;5.47;1.40;;;;;;;9.38;100.00;100575.53;2078339;28;38874;-73
2022/09/16 00:24:18;;;;;;;5.47;1.40;;;;;;;9.36;100.00;100572.03;2078976;28;36800;-72
2022/09/16 00:25:19;;;;;;;8.40;0.63;;;;;;;9.38;100.00;100570.19;2086262;28;37402;-72
2022/09/16 00:26:21;;;;;;;8.05;0.90;;;;;;;9.40;100.00;100573.69;2079298;28;35312;-73
2022/09/16 00:27:24;;;;;;;3.78;0.80;;;;;;;9.41;100.00;100572.78;2079871;28;20030;-72
2022/09/16 00:28:26;;;;;;;5.45;0.75;;;;;;;9.44;100.00;100572.72;2078639;28;31185;-72
2022/09/16 00:29:28;;;;;;;6.28;0.60;;;;;;;9.42;100.00;100571.91;2070851;28;34789;-73
2022/09/16 00:30:30;;;;;;;5.93;0.70;;;;;;;9.42;100.00;100574.56;2079372;28;20175;-73
2022/09/16 00:31:31;;;;;;;5.60;0.90;;;;;;;9.43;100.00;100572.75;2080041;28;39995;-72
2022/09/16 00:32:33;;;;;;;8.07;0.60;;;;;;;9.41;100.00;100566.59;2078829;28;37359;-72
2022/09/16 00:33:35;;;;;;;6.38;0.90;;;;;;;9.42;100.00;100577.22;2078621;28;35952;-72
2022/09/16 00:34:36;;;;;;;7.35;0.90;;;;;;;9.41;100.00;100577.28;2079341;28;36162;-72
2022/09/16 00:35:38;;;;;;;5.90;0.85;;;;;;;9.45;100.00;100570.94;2080678;28;20135;-73
2022/09/16 00:36:40;;;;;;;2.85;0.47;;;;;;;9.44;100.00;100572.72;2079163;28;32973;-72
2022/09/16 00:37:42;;;;;;;5.28;0.60;;;;;;;9.45;100.00;100573.59;2079720;28;37582;-72
2022/09/16 00:38:44;;;;;;;5.05;0.70;;;;;;;9.43;100.00;100573.63;2078480;28;35031;-72
2022/09/16 00:39:49;;;;;;;6.63;0.60;;;;;;;9.42;100.00;100562.97;2078973;28;34625;-72
2022/09/16 00:40:50;;;;;;;4.55;0.70;;;;;;;9.41;100.00;100570.13;2078515;28;35687;-73
2022/09/16 00:41:55;;;;;;;6.50;0.98;;;;;;;9.46;100.00;100575.38;2078440;28;37093;-72
2022/09/16 00:42:59;;;;;;;9.45;1.00;;;;;;;9.46;100.00;100570.91;2079019;28;38345;-73
2022/09/16 00:44:25;;;;;;;6.20;0.82;;;;;;;9.48;100.00;100574.41;2079974;28;20035;-72
2022/09/16 00:45:30;;;;;;;5.38;0.88;;;;;;;9.43;100.00;100565.63;2078771;28;34802;-70
2022/09/16 00:46:46;;;;;;;3.50;0.68;;;;;;;9.45;100.00;100569.13;2079894;28;20174;-72
2022/09/16 00:48:08;;;;;;;6.28;0.70;;;;;;;9.48;100.00;100558.38;2078426;28;39172;-73
2022/09/16 00:49:26;;;;;;;5.60;0.52;;;;;;;9.48;100.00;100563.72;2082603;28;20868;-72
2022/09/16 00:50:42;;;;;;;6.05;0.70;;;;;;;9.50;100.00;100556.53;2078657;28;38345;-71
2022/09/16 00:51:47;;;;;;;4.90;0.50;;;;;;;9.50;100.00;100564.53;2081161;28;33251;-73
2022/09/16 00:52:51;;;;;;;6.68;0.60;;;;;;;9.53;100.00;100555.59;2078199;28;35178;-69
2022/09/16 00:54:00;;;;;;;7.47;0.60;;;;;;;9.58;100.00;100547.44;2079366;28;34219;-71
2022/09/16 00:55:08;;;;;;;6.57;0.75;;;;;;;9.55;100.00;100557.31;2085261;28;37299;-71
2022/09/16 00:56:13;;;;;;;4.97;0.40;;;;;;;9.57;100.00;100556.41;2071549;28;38299;-71
2022/09/16 00:57:15;;;;;;;3.63;0.55;;;;;;;9.60;100.00;100559.88;2065652;28;34428;-71
2022/09/16 00:58:27;;;;;;;2.08;0.40;;;;;;;9.62;100.00;100554.47;2080972;28;27856;-71
2022/09/16 00:59:33;;;;;;;5.30;0.60;;;;;;;9.63;100.00;100556.22;2080158;28;38977;-71
2022/09/16 01:00:38;;;;;;;6.85;0.70;;;;;;;9.65;100.00;100559.75;2081816;28;20054;-71
2022/09/16 01:01:43;;;;;;;6.70;0.55;;;;;;;9.66;100.00;100556.16;2086576;28;37660;-71
2022/09/16 01:02:47;;;;;;;3.63;0.40;;;;;;;9.69;100.00;100553.38;2079440;28;34858;-71
2022/09/16 01:03:55;;;;;;;5.28;0.40;;;;;;;9.69;100.00;100556.06;2078771;28;32079;-71
2022/09/16 01:05:24;;;;;;;6.93;0.38;;;;;;;9.71;100.00;100565.81;2079858;28;38852;-71
2022/09/16 01:06:27;;;;;;;5.35;0.43;;;;;;;9.74;100.00;100564.84;2086085;28;38432;-70
2022/09/16 01:07:52;;;;;;;6.40;0.40;;;;;;;9.77;100.00;100569.25;2087221;28;38241;-70
2022/09/16 01:08:56;;;;;;;5.63;0.38;;;;;;;9.78;100.00;100566.53;2086791;28;29995;-70
2022/09/16 01:09:58;;;;;;;7.80;0.50;;;;;;;9.80;100.00;100559.34;2087928;28;38166;-71
2022/09/16 01:11:00;;;;;;;6.38;0.77;;;;;;;9.81;100.00;100557.56;2088234;28;37896;-70
2022/09/16 01:12:02;;;;;;;5.88;0.50;;;;;;;9.84;100.00;100562.84;2088302;28;37188;-71
2022/09/16 01:13:09;;;;;;;6.07;0.47;;;;;;;9.85;100.00;100561.91;2088426;28;31934;-72
2022/09/16 01:16:07;;;;;;;6.18;0.40;;;;;;;9.88;100.00;100572.53;2084056;28;20042;-71
2022/09/16 01:17:49;;;;;;;3.35;0.50;;;;;;;9.92;100.00;100569.75;2080810;28;34957;-71
2022/09/16 01:19:31;;;;;;;3.35;0.40;;;;;;;9.92;100.00;100568.84;2079907;28;35874;-71
2022/09/16 01:20:49;;;;;;;4.70;0.55;;;;;;;9.93;100.00;100563.44;2080479;28;20045;-72
2022/09/16 01:22:28;;;;;;;4.97;0.60;;;;;;;9.93;100.00;100555.44;2087989;28;28325;-70
2022/09/16 01:24:06;;;;;;;6.15;0.57;;;;;;;9.92;100.00;100561.72;2073812;28;32362;-72
2022/09/16 01:25:36;;;;;;;8.30;0.60;;;;;;;9.92;100.00;100559.03;2080106;28;35441;-70
2022/09/16 01:27:06;;;;;;;4.85;0.40;;;;;;;9.91;100.00;100554.59;2079390;28;32002;-70
2022/09/16 01:29:00;;;;;;;5.82;0.40;;;;;;;9.92;100.00;100559.03;2080554;28;33953;-71
2022/09/16 01:30:54;;;;;;;5.60;0.50;;;;;;;9.90;100.00;100566.19;2056553;28;35882;-71
2022/09/16 01:32:32;;;;;;;1.27;0.20;;;;;;;9.92;100.00;100563.50;2046567;28;38072;-72
2022/09/16 01:34:02;;;;;;;4.07;0.20;;;;;;;9.89;100.00;100553.75;2079348;28;22743;-73
2022/09/16 01:35:43;;;;;;;1.58;0.30;;;;;;;9.87;100.00;100547.59;2082895;28;40588;-72
2022/09/16 01:37:05;;;;;;;3.45;0.30;;;;;;;9.87;100.00;100554.69;2088221;28;29178;-73
2022/09/16 01:38:34;;;;;;;5.30;0.30;;;;;;;9.88;100.00;100554.66;2088063;28;33012;-72
2022/09/16 01:40:07;;;;;;;2.58;0.30;;;;;;;9.84;100.00;100555.69;2086720;28;29625;-72
2022/09/16 01:41:20;;;;;;;3.13;0.40;;;;;;;9.81;100.00;100558.41;2080775;28;38338;-72
2022/09/16 01:42:57;;;;;;;5.28;0.30;;;;;;;9.80;100.00;100554.00;2079483;28;32251;-72
2022/09/16 01:44:27;;;;;;;2.88;0.30;;;;;;;9.78;100.00;100561.19;2075848;28;38132;-73
2022/09/16 01:45:33;;;;;;;2.75;0.30;;;;;;;9.80;100.00;100554.00;2079005;28;38605;-73
2022/09/16 01:47:11;;;;;;;4.05;0.30;;;;;;;9.79;100.00;100554.91;2088701;28;41865;-73
2022/09/16 01:48:18;;;;;;;4.20;0.47;;;;;;;9.77;100.00;100553.22;2087155;28;35579;-72
2022/09/16 01:49:28;;;;;;;5.55;0.50;;;;;;;9.77;100.00;100554.09;2083118;28;40637;-73
2022/09/16 01:50:48;;;;;;;4.90;0.30;;;;;;;9.79;100.00;100549.56;2087079;28;40893;-71
2022/09/16 01:52:13;;;;;;;4.15;0.20;;;;;;;9.78;100.00;100546.94;2086645;28;34406;-71
2022/09/16 01:53:31;;;;;;;3.40;0.47;;;;;;;9.78;100.00;100542.47;2085435;28;20780;-71
2022/09/16 01:54:52;;;;;;;5.13;0.30;;;;;;;9.75;100.00;100550.56;2084469;28;33991;-71
2022/09/16 01:56:04;;;;;;;3.83;0.30;;;;;;;9.73;100.00;100541.72;2082156;28;38730;-70
2022/09/16 01:57:24;;;;;;;5.13;0.40;;;;;;;9.72;100.00;100545.28;2080397;28;35754;-71
2022/09/16 01:59:10;;;;;;;3.65;0.20;;;;;;;9.71;100.00;100548.91;2072331;28;20906;-71
2022/09/16 02:00:13;;;;;;;0.88;0.20;;;;;;;9.70;100.00;100552.47;2084306;28;36837;-72
2022/09/16 02:01:47;;;;;;;3.58;0.22;;;;;;;9.71;100.00;100555.13;2087887;28;30070;-71
2022/09/16 02:03:09;;;;;;;4.10;0.40;;;;;;;9.71;100.00;100564.94;2076983;28;20045;-71
2022/09/16 02:04:21;;;;;;;3.95;0.30;;;;;;;9.74;100.00;100578.22;2086184;28;41620;-72
2022/09/16 02:06:08;;;;;;;5.25;0.40;;;;;;;9.75;100.00;100577.31;2076459;28;20911;-71
2022/09/16 02:07:14;;;;;;;5.25;0.45;;;;;;;9.78;100.00;100574.56;2076406;28;39463;-72
2022/09/16 02:08:55;;;;;;;2.72;0.20;;;;;;;9.78;100.00;100571.91;2087947;28;37593;-72
2022/09/16 02:10:07;;;;;;;7.38;0.65;;;;;;;9.77;100.00;100575.47;2087824;28;41448;-71
2022/09/16 02:11:14;;;;;;;3.83;0.30;;;;;;;9.77;100.00;100572.78;2089830;28;34154;-72
2022/09/16 02:12:32;;;;;;;5.68;0.30;;;;;;;9.77;100.00;100574.59;2081744;28;40620;-73
2022/09/16 02:13:40;;;;;;;3.67;0.55;;;;;;;9.76;100.00;100568.34;2082453;28;31597;-74
2022/09/16 02:14:47;;;;;;;5.32;0.60;;;;;;;9.76;100.00;100568.34;2087742;28;40956;-73
2022/09/16 02:15:53;;;;;;;3.47;0.20;;;;;;;9.77;100.00;100574.59;2087473;28;38353;-74
2022/09/16 02:17:21;;;;;;;4.10;0.30;;;;;;;9.75;100.00;100569.28;2079673;28;41288;-65
2022/09/16 02:18:30;;;;;;;5.90;0.50;;;;;;;9.77;100.00;100570.13;2078198;28;38697;-65
2022/09/16 02:19:54;;;;;;;6.90;0.43;;;;;;;9.78;100.00;100558.53;2070865;28;41233;-66
2022/09/16 02:20:59;;;;;;;6.15;0.40;;;;;;;9.77;100.00;100556.75;2075474;28;33958;-65
2022/09/16 02:22:06;;;;;;;4.55;0.40;;;;;;;9.77;100.00;100554.09;2070880;28;39755;-68
2022/09/16 02:23:15;;;;;;;4.28;0.75;;;;;;;9.80;100.00;100558.47;2065665;28;20043;-67
2022/09/16 02:24:20;;;;;;;4.00;0.55;;;;;;;9.77;100.00;100543.38;2079254;28;35465;-74
2022/09/16 02:25:23;;;;;;;5.13;0.40;;;;;;;9.77;100.00;100543.38;2073319;28;33700;-64
2022/09/16 02:26:31;;;;;;;3.53;0.40;;;;;;;9.75;100.00;100546.09;2071672;28;36376;-68
2022/09/16 02:27:37;;;;;;;4.78;0.52;;;;;;;9.77;100.00;100538.03;2080932;28;33979;-65
2022/09/16 02:28:43;;;;;;;4.70;0.57;;;;;;;9.74;100.00;100544.34;2080069;28;20048;-69
2022/09/16 02:29:55;;;;;;;4.05;0.40;;;;;;;9.75;100.00;100551.44;2079581;28;33343;-69
2022/09/16 02:31:01;;;;;;;2.80;0.35;;;;;;;9.75;100.00;100545.22;2079490;28;35228;-70
2022/09/16 02:32:07;;;;;;;3.95;0.45;;;;;;;9.74;100.00;100549.69;2072366;28;32689;-69
2022/09/16 02:33:12;;;;;;;5.13;0.40;;;;;;;9.71;100.00;100544.44;2080644;28;30942;-70
2022/09/16 02:34:26;;;;;;;3.35;0.50;;;;;;;9.74;100.00;100560.41;2078370;28;38048;-67
2022/09/16 02:35:35;;;;;;;2.85;0.40;;;;;;;9.73;100.00;100547.94;2073822;28;20050;-67
2022/09/16 02:36:41;;;;;;;6.57;0.65;;;;;;;9.72;100.00;100551.50;2081952;28;32768;-70
2022/09/16 02:37:56;;;;;;;3.95;0.50;;;;;;;9.71;100.00;100555.13;2079868;28;20710;-67
2022/09/16 02:39:10;;;;;;;7.18;0.70;;;;;;;9.69;100.00;100558.72;2074455;28;20039;-64
2022/09/16 02:40:23;;;;;;;4.82;0.52;;;;;;;9.66;100.00;100550.81;2082238;28;37498;-69
2022/09/16 02:41:25;;;;;;;4.72;0.50;;;;;;;9.68;100.00;100552.53;2085766;28;33369;-65
2022/09/16 02:42:28;;;;;;;3.97;0.70;;;;;;;9.68;100.00;100554.31;2079860;28;35851;-64
2022/09/16 02:43:31;;;;;;;3.17;0.63;;;;;;;9.67;100.00;100547.19;2079455;28;20945;-65
2022/09/16 02:44:33;;;;;;;3.22;0.60;;;;;;;9.69;100.00;100558.72;2063229;28;28580;-69
2022/09/16 02:45:58;;;;;;;5.00;0.50;;;;;;;9.67;100.00;100557.91;2070888;28;34569;-71
2022/09/16 02:47:11;;;;;;;4.88;0.60;;;;;;;9.67;100.00;100557.91;2080767;28;20105;-66
2022/09/16 02:48:39;;;;;;;8.20;0.50;;;;;;;9.70;100.00;100556.03;2081778;28;40430;-65
2022/09/16 02:49:54;;;;;;;6.85;0.70;;;;;;;9.70;100.00;100558.69;2083544;28;20041;-65
2022/09/16 02:51:07;;;;;;;5.03;0.60;;;;;;;9.71;100.00;100554.25;2080852;28;31521;-64
2022/09/16 02:52:43;;;;;;;4.07;0.60;;;;;;;9.69;100.00;100561.41;2078971;28;34897;-68
2022/09/16 02:54:04;;;;;;;6.57;1.13;;;;;;;9.67;100.00;100558.81;2079175;28;31175;-69
2022/09/16 02:55:30;;;;;;;;;;;;;;;9.67;100.00;100563.25;2088292;28;34516;-63
2022/09/16 02:56:39;;;;;;;7.18;1.10;;;;;;;9.71;100.00;100564.94;2070541;28;36655;-69
2022/09/16 02:57:41;;;;;;;5.50;0.93;;;;;;;9.69;100.00;100562.31;2064507;28;37916;-69
2022/09/16 02:58:42;;;;;;;4.78;1.10;;;;;;;9.68;100.00;100554.31;2079087;28;20033;-64
2022/09/16 02:59:44;;;;;;;5.63;1.40;;;;;;;9.71;100.00;100563.13;2078172;28;39250;-66
2022/09/16 03:00:52;;;;;;;7.43;1.13;;;;;;;9.70;100.00;100560.50;2079068;28;30859;-66
2022/09/16 03:01:54;;;;;;;8.60;1.35;;;;;;;9.72;100.00;100562.22;2087557;28;20037;-68
2022/09/16 03:02:55;;;;;;;5.03;1.45;;;;;;;9.72;100.00;100566.69;2082645;28;36399;-71
2022/09/16 03:03:58;;;;;;;8.23;1.70;;;;;;;9.71;100.00;100559.59;2079768;28;20041;-66
2022/09/16 03:05:00;;;;;;;9.45;2.30;;;;;;;9.73;100.00;100563.09;2078235;28;37247;-66
2022/09/16 03:06:02;;;;;;;10.07;2.15;;;;;;;9.72;100.00;100564.88;2078621;28;34887;-67
2022/09/16 03:07:08;;;;;;;6.13;1.42;;;;;;;9.73;100.00;100569.31;2079356;28;31412;-72
2022/09/16 03:08:10;;;;;;;7.38;1.35;;;;;;;9.72;100.00;100561.34;2080388;28;26692;-67
2022/09/16 03:09:14;;;;;;;6.22;1.23;;;;;;;9.71;100.00;100557.78;2079608;28;32992;-65
2022/09/16 03:10:18;;;;;;;5.32;1.80;;;;;;;9.74;100.00;100557.72;2087153;28;36424;-71
2022/09/16 03:12:09;;;;;;;5.20;1.35;;;;;;;9.73;100.00;100555.09;2078923;28;20407;-68
2022/09/16 03:13:27;;;;;;;5.30;1.63;;;;;;;9.73;100.00;100541.72;2079686;28;32116;-65
2022/09/16 03:15:07;;;;;;;6.47;1.50;;;;;;;9.72;100.00;100540.81;2079116;28;32125;-70
2022/09/16 03:16:29;;;;;;;6.70;1.30;;;;;;;9.73;100.00;100541.72;2086488;28;36648;-72
2022/09/16 03:17:47;;;;;;;4.95;1.30;;;;;;;9.70;100.00;100542.66;2079345;28;20038;-72
2022/09/16 03:19:15;;;;;;;6.35;1.25;;;;;;;9.67;100.00;100544.53;2083535;28;20062;-72
2022/09/16 03:20:39;;;;;;;6.43;1.17;;;;;;;9.65;100.00;100538.34;2078857;28;32362;-71
2022/09/16 03:22:05;;;;;;;3.67;0.95;;;;;;;9.62;100.00;100543.75;2083123;28;34009;-71
2022/09/16 03:23:28;;;;;;;5.63;1.17;;;;;;;9.59;100.00;100543.88;2078879;28;36650;-72
2022/09/16 03:24:51;;;;;;;9.00;1.35;;;;;;;9.57;100.00;100541.22;2075787;28;20050;-71
2022/09/16 03:26:09;;;;;;;4.30;1.27;;;;;;;9.53;100.00;100540.44;2078731;28;38048;-72
2022/09/16 03:27:19;;;;;;;3.20;1.23;;;;;;;9.48;100.00;100542.34;2086942;28;36144;-71
2022/09/16 03:28:45;;;;;;;6.68;1.30;;;;;;;9.46;100.00;100544.16;2078896;28;32996;-71
2022/09/16 03:30:00;;;;;;;5.05;0.85;;;;;;;9.40;100.00;100544.31;2082916;28;30216;-71
2022/09/16 03:31:40;;;;;;;5.53;1.38;;;;;;;9.39;100.00;100542.56;2079219;28;31733;-71
2022/09/16 03:33:08;;;;;;;4.13;1.00;;;;;;;9.33;100.00;100532.00;2072638;28;41486;-71
2022/09/16 03:34:28;;;;;;;8.73;1.65;;;;;;;9.30;100.00;100537.44;2066827;28;37709;-71
2022/09/16 03:35:48;;;;;;;6.55;0.90;;;;;;;9.31;100.00;100541.84;2087151;28;33813;-71
2022/09/16 03:37:00;;;;;;;6.03;1.35;;;;;;;9.32;100.00;100540.97;2087092;28;31375;-71
2022/09/16 03:38:02;;;;;;;2.63;0.68;;;;;;;9.29;100.00;100541.03;2082445;28;40886;-70
2022/09/16 03:39:05;;;;;;;4.43;1.00;;;;;;;9.27;100.00;100546.41;2081783;28;35853;-70
2022/09/16 03:40:11;;;;;;;5.22;0.80;;;;;;;9.25;100.00;100540.22;2079412;28;31093;-70
2022/09/16 03:41:14;;;;;;;4.00;0.88;;;;;;;9.23;100.00;100541.19;2079713;28;28039;-71
2022/09/16 03:42:16;;;;;;;4.00;0.50;;;;;;;9.20;100.00;100541.25;2086664;28;35863;-71
2022/09/16 03:43:18;;;;;;;3.42;0.95;;;;;;;9.15;100.00;100542.25;2087141;28;20456;-71
2022/09/16 03:44:19;;;;;;;4.53;1.23;;;;;;;9.13;100.00;100538.75;2086276;28;41217;-71
2022/09/16 03:45:21;;;;;;;3.83;0.90;;;;;;;9.12;100.00;100542.31;2088104;28;20034;-71
2022/09/16 03:46:25;;;;;;;6.63;1.00;;;;;;;9.09;100.00;100539.69;2087258;28;33579;-71
2022/09/16 03:47:27;;;;;;;4.93;1.02;;;;;;;9.11;100.00;100542.34;2087382;28;37388;-71
2022/09/16 03:48:28;;;;;;;5.35;0.95;;;;;;;9.11;100.00;100540.53;2086622;28;28214;-71
2022/09/16 03:49:30;;;;;;;5.43;0.80;;;;;;;9.16;100.00;100540.44;2086499;28;20044;-71
2022/09/16 03:50:32;;;;;;;9.13;1.30;;;;;;;9.17;100.00;100545.75;2087217;28;34025;-71
2022/09/16 03:51:33;;;;;;;7.22;1.17;;;;;;;9.20;100.00;100543.91;2087499;28;32121;-71
2022/09/16 03:52:35;;;;;;;5.68;1.08;;;;;;;9.22;100.00;100553.63;2086347;28;36768;-71
2022/09/16 03:53:37;;;;;;;4.18;1.33;;;;;;;9.21;100.00;100543.88;2087482;28;20167;-71
2022/09/16 03:54:39;;;;;;;8.70;1.08;;;;;;;9.25;100.00;100542.88;2087081;28;40396;-71
2022/09/16 03:55:40;;;;;;;7.40;1.08;;;;;;;9.26;100.00;100546.44;2087508;28;36866;-71
2022/09/16 03:56:42;;;;;;;5.88;1.20;;;;;;;9.28;100.00;100542.81;2087360;28;20423;-70
2022/09/16 03:57:47;;;;;;;4.50;1.00;;;;;;;9.28;100.00;100541.97;2086821;28;33793;-70
2022/09/16 03:58:50;;;;;;;3.13;1.00;;;;;;;9.28;100.00;100550.84;2087484;28;38591;-70
2022/09/16 03:59:51;;;;;;;7.55;1.17;;;;;;;9.26;100.00;100546.44;2087132;28;34341;-70
2022/09/16 04:00:53;;;;;;;6.75;1.17;;;;;;;9.24;100.00;100540.25;2086973;28;39238;-70
2022/09/16 04:01:55;;;;;;;5.40;0.90;;;;;;;9.21;100.00;100548.38;2087299;28;36668;-70
2022/09/16 04:02:59;;;;;;;5.85;1.02;;;;;;;9.17;100.00;100539.53;2083790;28;31072;-70
2022/09/16 04:04:01;;;;;;;5.18;0.85;;;;;;;9.13;100.00;100546.75;2078744;28;34688;-70
2022/09/16 04:05:03;;;;;;;4.68;0.75;;;;;;;9.11;100.00;100543.22;2079422;28;20157;-70
2022/09/16 04:06:05;;;;;;;8.63;1.10;;;;;;;9.08;100.00;100543.31;2079780;28;35480;-70
2022/09/16 04:07:06;;;;;;;5.65;1.00;;;;;;;9.08;100.00;100545.97;2078835;28;35275;-70
2022/09/16 04:08:08;;;;;;;8.13;0.85;;;;;;;9.04;100.00;100535.38;2078968;28;31741;-70
2022/09/16 04:09:11;;;;;;;4.85;0.93;;;;;;;9.01;100.00;100540.78;2081457;28;32880;-71
2022/09/16 04:10:13;;;;;;;7.85;0.93;;;;;;;9.00;100.00;100537.25;2079758;28;32851;-70
2022/09/16 04:11:15;;;;;;;7.40;1.02;;;;;;;8.98;100.00;100544.41;2079329;28;35773;-71
2022/09/16 04:12:17;;;;;;;3.92;0.95;;;;;;;8.93;100.00;100543.63;2079450;28;39352;-70
2022/09/16 04:13:20;;;;;;;5.75;1.10;;;;;;;8.89;100.00;100536.63;2079902;28;20045;-70
2022/09/16 04:14:24;;;;;;;8.45;1.67;;;;;;;8.89;100.00;100536.63;2079781;28;30309;-70
2022/09/16 04:15:26;;;;;;;6.22;1.40;;;;;;;8.90;100.00;100541.03;2079177;28;37184;-71
2022/09/16 04:16:28;;;;;;;6.72;1.17;;;;;;;8.84;100.00;100534.03;2079608;28;35791;-70
2022/09/16 04:17:33;;;;;;;5.70;1.30;;;;;;;8.82;100.00;100540.34;2078791;28;31313;-70
2022/09/16 04:18:35;;;;;;;3.65;0.80;;;;;;;8.82;100.00;100535.00;2079876;28;20038;-70
2022/09/16 04:19:36;;;;;;;3.90;0.65;;;;;;;8.77;100.00;100537.75;2079297;28;32784;-70
2022/09/16 04:20:38;;;;;;;4.10;0.75;;;;;;;8.72;100.00;100529.88;2079535;28;31108;-70
2022/09/16 04:21:41;;;;;;;5.35;1.10;;;;;;;8.72;100.00;100528.97;2078270;28;37727;-70
2022/09/16 04:22:42;;;;;;;5.90;1.02;;;;;;;8.73;100.00;100531.59;2078810;28;35859;-70
2022/09/16 04:23:44;;;;;;;8.38;1.17;;;;;;;8.70;100.00;100534.34;2078809;28;39019;-68
2022/09/16 04:24:51;;;;;;;4.50;1.05;;;;;;;8.65;100.00;100535.34;2079439;28;37733;-70
2022/09/16 04:25:58;;;;;;;5.82;1.08;;;;;;;8.65;100.00;100532.69;2079439;28;31133;-69
2022/09/16 04:27:00;;;;;;;7.50;1.17;;;;;;;8.64;100.00;100528.28;2079559;28;36669;-70
2022/09/16 04:28:02;;;;;;;7.80;1.00;;;;;;;8.62;100.00;100533.66;2079614;28;38680;-71
2022/09/16 04:29:03;;;;;;;6.47;1.15;;;;;;;8.60;100.00;100535.47;2079631;28;29356;-70
2022/09/16 04:30:06;;;;;;;5.97;1.35;;;;;;;8.62;100.00;100536.31;2078958;28;35928;-70
2022/09/16 04:31:13;;;;;;;5.03;0.70;;;;;;;8.61;100.00;100542.53;2080556;28;37925;-70
2022/09/16 04:32:15;;;;;;;5.47;0.90;;;;;;;8.60;100.00;100540.81;2081057;28;20050;-71
2022/09/16 04:33:17;;;;;;;6.28;1.33;;;;;;;8.57;100.00;100532.84;2080841;28;38178;-70
2022/09/16 04:34:19;;;;;;;6.57;1.00;;;;;;;8.55;100.00;100537.34;2080400;28;37066;-70
2022/09/16 04:35:23;;;;;;;3.40;0.80;;;;;;;8.53;100.00;100536.50;2080464;28;38964;-69
2022/09/16 04:36:28;;;;;;;6.13;0.82;;;;;;;8.51;100.00;100543.66;2079940;28;40831;-70
2022/09/16 04:37:30;;;;;;;7.03;1.20;;;;;;;8.50;100.00;100539.22;2087598;28;31342;-70
2022/09/16 04:38:32;;;;;;;8.52;0.90;;;;;;;8.52;100.00;100538.28;2080664;28;32705;-70
2022/09/16 04:39:33;;;;;;;5.75;1.13;;;;;;;8.55;100.00;100540.88;2081721;28;29744;-70
2022/09/16 04:40:37;;;;;;;7.50;0.90;;;;;;;8.56;100.00;100536.44;2080368;28;20053;-70
2022/09/16 04:41:39;;;;;;;5.95;1.02;;;;;;;8.52;100.00;100540.06;2080080;28;31044;-70
2022/09/16 04:42:41;;;;;;;6.82;1.40;;;;;;;8.50;100.00;100528.56;2080787;28;32472;-70
2022/09/16 04:43:43;;;;;;;7.10;1.20;;;;;;;8.48;100.00;100541.06;2081202;28;31148;-70
2022/09/16 04:44:45;;;;;;;7.20;1.05;;;;;;;8.46;100.00;100527.75;2080564;28;32643;-70
2022/09/16 04:45:46;;;;;;;5.32;1.13;;;;;;;8.48;100.00;100530.38;2081222;28;24821;-70
2022/09/16 04:46:48;;;;;;;5.13;1.02;;;;;;;8.46;100.00;100532.22;2080766;28;33556;-70
2022/09/16 04:48:00;;;;;;;6.95;1.13;;;;;;;8.46;100.00;100538.41;2081393;28;20046;-70
2022/09/16 04:49:02;;;;;;;9.30;1.15;;;;;;;8.47;100.00;100536.63;2080893;28;34550;-70
2022/09/16 04:50:05;;;;;;;9.80;1.25;;;;;;;8.50;100.00;100533.91;2080863;28;28238;-70
2022/09/16 04:51:10;;;;;;;5.90;1.05;;;;;;;8.50;100.00;100539.22;2080479;28;39150;-70
2022/09/16 04:52:12;;;;;;;6.68;1.30;;;;;;;8.52;100.00;100537.41;2080488;28;31091;-70
2022/09/16 04:53:14;;;;;;;6.80;1.05;;;;;;;8.50;100.00;100539.22;2080591;28;31017;-70
2022/09/16 04:54:15;;;;;;;5.57;1.27;;;;;;;8.54;100.00;100543.59;2080221;28;31831;-68
2022/09/16 04:55:18;;;;;;;6.65;1.33;;;;;;;8.54;100.00;100540.91;2080049;28;37410;-70
2022/09/16 04:56:24;;;;;;;6.43;0.88;;;;;;;8.51;100.00;100535.66;2080176;28;34891;-69
2022/09/16 04:57:31;;;;;;;10.60;0.95;;;;;;;8.55;100.00;100542.69;2079958;28;32130;-70
2022/09/16 04:58:35;;;;;;;6.88;1.10;;;;;;;8.54;100.00;100535.59;2080680;28;36651;-70
2022/09/16 04:59:37;;;;;;;8.68;1.30;;;;;;;8.54;100.00;100530.25;2080042;28;33449;-70
2022/09/16 05:00:39;;;;;;;6.45;1.30;;;;;;;8.53;100.00;100536.50;2080639;28;20906;-70
2022/09/16 05:01:42;;;;;;;6.32;1.10;;;;;;;8.51;100.00;100533.00;2080423;28;34347;-70
2022/09/16 05:02:44;;;;;;;11.25;1.40;;;;;;;8.47;100.00;100529.53;2080508;28;30075;-70
2022/09/16 05:03:49;;;;;;;5.35;0.85;;;;;;;8.46;100.00;100526.88;2080031;28;31734;-70
2022/09/16 05:04:51;;;;;;;8.98;1.02;;;;;;;8.49;100.00;100524.13;2079841;28;33224;-70
2022/09/16 05:06:04;;;;;;;9.05;1.02;;;;;;;8.49;100.00;100526.78;2080844;28;20038;-70
2022/09/16 05:07:07;;;;;;;4.43;1.02;;;;;;;8.45;100.00;100522.44;2080730;28;35491;-70
2022/09/16 05:08:08;;;;;;;6.03;0.85;;;;;;;8.44;100.00;100524.25;2081311;28;20048;-70
2022/09/16 05:09:12;;;;;;;10.68;1.30;;;;;;;8.44;100.00;100518.03;2080378;28;35498;-70
2022/09/16 05:10:16;;;;;;;7.88;1.40;;;;;;;8.41;100.00;100508.25;2080473;28;32427;-70
2022/09/16 05:11:25;;;;;;;11.52;1.17;;;;;;;8.40;100.00;100507.38;2080419;28;38718;-70
2022/09/16 05:12:30;;;;;;;8.20;1.08;;;;;;;8.42;100.00;100518.06;2080777;28;34409;-69
2022/09/16 05:13:32;;;;;;;7.65;1.08;;;;;;;8.40;100.00;100518.06;2080953;28;31071;-70
2022/09/16 05:14:34;;;;;;;5.60;1.02;;;;;;;8.39;100.00;100513.63;2080659;28;36805;-70
2022/09/16 05:15:38;;;;;;;5.38;1.15;;;;;;;8.43;100.00;100521.59;2080147;28;35706;-70
2022/09/16 05:16:40;;;;;;;5.40;1.15;;;;;;;8.44;100.00;100510.03;2080425;28;35277;-70
2022/09/16 05:17:42;;;;;;;9.57;1.27;;;;;;;8.48;100.00;100514.38;2080322;28;39659;-70
2022/09/16 05:18:56;;;;;;;8.82;1.00;;;;;;;8.51;100.00;100511.66;2080789;28;35332;-70
2022/09/16 05:19:58;;;;;;;8.85;1.20;;;;;;;8.53;100.00;100510.69;2079569;28;34530;-70
2022/09/16 05:21:01;;;;;;;8.40;1.25;;;;;;;8.57;100.00;100507.03;2079941;28;34419;-70
2022/09/16 05:22:06;;;;;;;5.88;1.10;;;;;;;8.60;100.00;100504.31;2080199;28;33338;-70
2022/09/16 05:23:07;;;;;;;13.02;1.10;;;;;;;8.66;100.00;100503.28;2080471;28;31759;-70
2022/09/16 05:24:12;;;;;;;6.30;0.77;;;;;;;8.70;100.00;100502.31;2081026;28;20132;-70